sensor_id;sensor_type;location;lat;lon;timestamp;pressure;altitude;pressure_sealevel;temperature;humidity
21980;BME280;11154;48.558;9.234;2022-07-29T00:00:16;97326.13;;;20.74;100.00
21980;BME280;11154;48.558;9.234;2022-07-29T00:02:18;97339.31;;;20.82;100.00
21980;BME280;11154;48.558;9.234;2022-07-29T00:04:19;97333.47;;;20.85;100.00
21980;BME280;11154;48.558;9.234;2022-07-29T00:06:21;97328.28;;;20.84;100.00
21980;BME280;11154;48.558;9.234;2022-07-29T00:08:24;97322.41;;;20.87;100.00
21980;BME280;11154;48.558;9.234;2022-07-29T00:10:26;97320.31;;;20.89;100.00
21980;BME280;11154;48.558;9.234;2022-07-29T00:12:27;97324.31;;;20.86;100.00
21980;BME280;11154;48.558;9.234;2022-07-29T00:14:29;97327.56;;;20.88;100.00
21980;BME280;11154;48.558;9.234;2022-07-29T00:16:31;97323.94;;;20.83;100.00
21980;BME280;11154;48.558;9.234;2022-07-29T00:18:33;97320.50;;;20.76;100.00
21980;BME280;11154;48.558;9.234;2022-07-29T00:20:34;97322.97;;;20.77;100.00
21980;BME280;11154;48.558;9.234;2022-07-29T00:22:37;97328.13;;;20.79;100.00
21980;BME280;11154;48.558;9.234;2022-07-29T00:24:40;97322.03;;;20.83;100.00
21980;BME280;11154;48.558;9.234;2022-07-29T00:26:42;97327.25;;;20.85;100.00
21980;BME280;11154;48.558;9.234;2022-07-29T00:28:43;97322.66;;;20.85;100.00
21980;BME280;11154;48.558;9.234;2022-07-29T00:30:45;97313.13;;;20.83;100.00
21980;BME280;11154;48.558;9.234;2022-07-29T00:32:47;97311.59;;;20.75;100.00
21980;BME280;11154;48.558;9.234;2022-07-29T00:34:49;97316.75;;;20.77;100.00
21980;BME280;11154;48.558;9.234;2022-07-29T00:37:08;97316.59;;;20.72;100.00
21980;BME280;11154;48.558;9.234;2022-07-29T00:39:10;97313.28;;;20.70;100.00
21980;BME280;11154;48.558;9.234;2022-07-29T00:41:13;97315.84;;;20.65;100.00
21980;BME280;11154;48.558;9.234;2022-07-29T00:43:15;97315.84;;;20.65;100.00
21980;BME280;11154;48.558;9.234;2022-07-29T00:45:18;97316.28;;;20.62;100.00
21980;BME280;11154;48.558;9.234;2022-07-29T00:47:20;97316.06;;;20.63;100.00
21980;BME280;11154;48.558;9.234;2022-07-29T00:49:22;97310.66;;;20.63;100.00
21980;BME280;11154;48.558;9.234;2022-07-29T00:51:25;97315.25;;;20.63;100.00
21980;BME280;11154;48.558;9.234;2022-07-29T00:53:27;97309.34;;;20.54;100.00
21980;BME280;11154;48.558;9.234;2022-07-29T00:55:30;97308.13;;;20.50;100.00
21980;BME280;11154;48.558;9.234;2022-07-29T00:57:34;97295.34;;;20.46;100.00
21980;BME280;11154;48.558;9.234;2022-07-29T00:59:36;97297.31;;;20.50;100.00
21980;BME280;11154;48.558;9.234;2022-07-29T01:01:37;97287.81;;;20.48;100.00
21980;BME280;11154;48.558;9.234;2022-07-29T01:03:39;97291.78;;;20.45;100.00
21980;BME280;11154;48.558;9.234;2022-07-29T01:05:42;97286.47;;;20.39;100.00
21980;BME280;11154;48.558;9.234;2022-07-29T01:07:46;97283.91;;;20.44;100.00
21980;BME280;11154;48.558;9.234;2022-07-29T01:09:48;97272.63;;;20.47;100.00
21980;BME280;11154;48.558;9.234;2022-07-29T01:11:49;97278.94;;;20.41;100.00
21980;BME280;11154;48.558;9.234;2022-07-29T01:13:53;97287.66;;;20.43;100.00
21980;BME280;11154;48.558;9.234;2022-07-29T01:15:59;97284.53;;;20.46;100.00
21980;BME280;11154;48.558;9.234;2022-07-29T01:18:11;97275.81;;;20.44;100.00
21980;BME280;11154;48.558;9.234;2022-07-29T01:20:28;97280.03;;;20.40;100.00
21980;BME280;11154;48.558;9.234;2022-07-29T01:22:42;97277.78;;;20.37;100.00
21980;BME280;11154;48.558;9.234;2022-07-29T01:25:06;97279.88;;;20.35;100.00
21980;BME280;11154;48.558;9.234;2022-07-29T01:27:26;97276.25;;;20.41;100.00
21980;BME280;11154;48.558;9.234;2022-07-29T01:29:36;97278.00;;;20.35;100.00
21980;BME280;11154;48.558;9.234;2022-07-29T01:31:44;97280.03;;;20.40;100.00
21980;BME280;11154;48.558;9.234;2022-07-29T01:33:52;97275.44;;;20.40;100.00
21980;BME280;11154;48.558;9.234;2022-07-29T01:35:57;97277.63;;;20.32;100.00
21980;BME280;11154;48.558;9.234;2022-07-29T01:38:05;97280.47;;;20.37;100.00
21980;BME280;11154;48.558;9.234;2022-07-29T01:40:12;97283.19;;;20.37;100.00
21980;BME280;11154;48.558;9.234;2022-07-29T01:42:20;97276.97;;;20.36;100.00
21980;BME280;11154;48.558;9.234;2022-07-29T01:44:31;97279.66;;;20.36;100.00
21980;BME280;11154;48.558;9.234;2022-07-29T01:46:37;97271.75;;;20.35;100.00
21980;BME280;11154;48.558;9.234;2022-07-29T01:48:45;97279.88;;;20.35;100.00
21980;BME280;11154;48.558;9.234;2022-07-29T01:50:51;97271.75;;;20.35;100.00
21980;BME280;11154;48.558;9.234;2022-07-29T01:52:56;97277.63;;;20.32;100.00
21980;BME280;11154;48.558;9.234;2022-07-29T01:55:04;97275.38;;;20.29;100.00
21980;BME280;11154;48.558;9.234;2022-07-29T01:57:09;97274.47;;;20.35;100.00
21980;BME280;11154;48.558;9.234;2022-07-29T01:59:13;97279.66;;;20.36;100.00
21980;BME280;11154;48.558;9.234;2022-07-29T02:01:17;97279.19;;;20.39;100.00
21980;BME280;11154;48.558;9.234;2022-07-29T02:03:22;97274.34;;;20.30;100.00
21980;BME280;11154;48.558;9.234;2022-07-29T02:05:25;97271.50;;;20.25;100.00
21980;BME280;11154;48.558;9.234;2022-07-29T02:07:30;97272.41;;;20.19;100.00
21980;BME280;11154;48.558;9.234;2022-07-29T02:09:35;97275.09;;;20.19;100.00
21980;BME280;11154;48.558;9.234;2022-07-29T02:11:38;97274.88;;;20.21;100.00
21980;BME280;11154;48.558;9.234;2022-07-29T02:13:43;97269.84;;;20.24;100.00
21980;BME280;11154;48.558;9.234;2022-07-29T02:15:46;97270.66;;;20.25;100.00
21980;BME280;11154;48.558;9.234;2022-07-29T02:17:52;97267.38;;;20.23;100.00
21980;BME280;11154;48.558;9.234;2022-07-29T02:19:59;97263.03;;;20.22;100.00
21980;BME280;11154;48.558;9.234;2022-07-29T02:22:02;97263.03;;;20.22;100.00
21980;BME280;11154;48.558;9.234;2022-07-29T02:24:05;97269.03;;;20.24;100.00
21980;BME280;11154;48.558;9.234;2022-07-29T02:26:08;97262.56;;;20.25;100.00
21980;BME280;11154;48.558;9.234;2022-07-29T02:28:11;97271.94;;;20.22;100.00
21980;BME280;11154;48.558;9.234;2022-07-29T02:30:13;97275.78;;;20.15;100.00
21980;BME280;11154;48.558;9.234;2022-07-29T02:32:16;97277.44;;;20.16;100.00
21980;BME280;11154;48.558;9.234;2022-07-29T02:34:19;97270.09;;;20.05;100.00
21980;BME280;11154;48.558;9.234;2022-07-29T02:36:23;97275.50;;;20.05;100.00
21980;BME280;11154;48.558;9.234;2022-07-29T02:38:27;97272.44;;;20.01;100.00
21980;BME280;11154;48.558;9.234;2022-07-29T02:40:48;97273.53;;;19.94;100.00
21980;BME280;11154;48.558;9.234;2022-07-29T02:42:52;97275.03;;;19.90;100.00
21980;BME280;11154;48.558;9.234;2022-07-29T02:44:53;97269.91;;;19.82;100.00
21980;BME280;11154;48.558;9.234;2022-07-29T02:46:59;97264.91;;;19.85;100.00
21980;BME280;11154;48.558;9.234;2022-07-29T02:49:08;97262.81;;;19.87;100.00
21980;BME280;11154;48.558;9.234;2022-07-29T02:51:16;97265.72;;;19.86;100.00
21980;BME280;11154;48.558;9.234;2022-07-29T02:53:23;97261.94;;;19.93;100.00
21980;BME280;11154;48.558;9.234;2022-07-29T02:55:30;97260.72;;;19.89;100.00
21980;BME280;11154;48.558;9.234;2022-07-29T02:57:36;97259.22;;;19.93;100.00
21980;BME280;11154;48.558;9.234;2022-07-29T02:59:42;97262.94;;;19.92;100.00
21980;BME280;11154;48.558;9.234;2022-07-29T03:01:45;97270.44;;;19.90;100.00
21980;BME280;11154;48.558;9.234;2022-07-29T03:03:49;97266.09;;;19.89;100.00
21980;BME280;11154;48.558;9.234;2022-07-29T03:05:53;97267.59;;;19.85;100.00
21980;BME280;11154;48.558;9.234;2022-07-29T03:08:00;97261.97;;;19.87;100.00
21980;BME280;11154;48.558;9.234;2022-07-29T03:10:06;97265.56;;;19.81;100.00
21980;BME280;11154;48.558;9.234;2022-07-29T03:12:09;97258.31;;;19.81;100.00
21980;BME280;11154;48.558;9.234;2022-07-29T03:14:11;97271.66;;;19.76;100.00
21980;BME280;11154;48.558;9.234;2022-07-29T03:16:14;97260.03;;;19.76;100.00
21980;BME280;11154;48.558;9.234;2022-07-29T03:18:16;97263.19;;;19.73;100.00
21980;BME280;11154;48.558;9.234;2022-07-29T03:20:19;97262.56;;;19.71;100.00
21980;BME280;11154;48.558;9.234;2022-07-29T03:22:21;97272.56;;;19.70;100.00
21980;BME280;11154;48.558;9.234;2022-07-29T03:24:27;97258.00;;;19.71;100.00
21980;BME280;11154;48.558;9.234;2022-07-29T03:26:31;97273.13;;;19.72;100.00
21980;BME280;11154;48.558;9.234;2022-07-29T03:28:32;97265.88;;;19.73;100.00
21980;BME280;11154;48.558;9.234;2022-07-29T03:30:34;97265.50;;;19.69;100.00
21980;BME280;11154;48.558;9.234;2022-07-29T03:32:36;97264.91;;;19.67;100.00
21980;BME280;11154;48.558;9.234;2022-07-29T03:34:38;97270.72;;;19.64;100.00
21980;BME280;11154;48.558;9.234;2022-07-29T03:36:40;97258.50;;;19.62;100.00
21980;BME280;11154;48.558;9.234;2022-07-29T03:38:42;97261.44;;;19.60;100.00
21980;BME280;11154;48.558;9.234;2022-07-29T03:40:49;97261.44;;;19.60;100.00
21980;BME280;11154;48.558;9.234;2022-07-29T03:42:55;97268.34;;;19.57;100.00
21980;BME280;11154;48.558;9.234;2022-07-29T03:44:58;97276.44;;;19.57;100.00
21980;BME280;11154;48.558;9.234;2022-07-29T03:47:04;97275.22;;;19.53;100.00
21980;BME280;11154;48.558;9.234;2022-07-29T03:49:08;97271.22;;;19.37;100.00
21980;BME280;11154;48.558;9.234;2022-07-29T03:51:10;97280.03;;;19.26;100.00
21980;BME280;11154;48.558;9.234;2022-07-29T03:53:12;97278.84;;;19.22;100.00
21980;BME280;11154;48.558;9.234;2022-07-29T03:55:14;97274.91;;;19.18;100.00
21980;BME280;11154;48.558;9.234;2022-07-29T03:57:18;97277.69;;;19.12;100.00
21980;BME280;11154;48.558;9.234;2022-07-29T03:59:23;97282.88;;;19.07;100.00
21980;BME280;11154;48.558;9.234;2022-07-29T04:01:25;97282.69;;;19.02;100.00
21980;BME280;11154;48.558;9.234;2022-07-29T04:03:28;97277.38;;;18.95;100.00
21980;BME280;11154;48.558;9.234;2022-07-29T04:05:31;97288.09;;;19.02;100.00
21980;BME280;11154;48.558;9.234;2022-07-29T04:07:32;97278.13;;;19.09;100.00
21980;BME280;11154;48.558;9.234;2022-07-29T04:09:34;97284.72;;;19.13;100.00
21980;BME280;11154;48.558;9.234;2022-07-29T04:11:36;97288.00;;;19.15;100.00
21980;BME280;11154;48.558;9.234;2022-07-29T04:13:39;97284.91;;;19.18;100.00
21980;BME280;11154;48.558;9.234;2022-07-29T04:15:42;97282.44;;;19.16;100.00
21980;BME280;11154;48.558;9.234;2022-07-29T04:17:44;97287.59;;;19.18;100.00
21980;BME280;11154;48.558;9.234;2022-07-29T04:19:45;97300.03;;;19.19;100.00
21980;BME280;11154;48.558;9.234;2022-07-29T04:21:47;97292.38;;;19.16;100.00
21980;BME280;11154;48.558;9.234;2022-07-29T04:23:49;97296.88;;;19.22;100.00
21980;BME280;11154;48.558;9.234;2022-07-29T04:25:50;97297.09;;;19.20;100.00
21980;BME280;11154;48.558;9.234;2022-07-29T04:27:52;97294.19;;;19.22;100.00
21980;BME280;11154;48.558;9.234;2022-07-29T04:30:04;97294.63;;;19.19;100.00
21980;BME280;11154;48.558;9.234;2022-07-29T04:32:07;97303.53;;;19.19;100.00
21980;BME280;11154;48.558;9.234;2022-07-29T04:34:09;97306.00;;;19.21;100.00
21980;BME280;11154;48.558;9.234;2022-07-29T04:36:10;97303.31;;;19.21;100.00
21980;BME280;11154;48.558;9.234;2022-07-29T04:38:12;97312.00;;;19.23;100.00
21980;BME280;11154;48.558;9.234;2022-07-29T04:40:14;97313.91;;;19.22;100.00
21980;BME280;11154;48.558;9.234;2022-07-29T04:42:15;97308.69;;;19.21;100.00
21980;BME280;11154;48.558;9.234;2022-07-29T04:44:17;97309.94;;;19.25;100.00
21980;BME280;11154;48.558;9.234;2022-07-29T04:46:19;97303.94;;;19.23;100.00
21980;BME280;11154;48.558;9.234;2022-07-29T04:48:22;97305.56;;;19.24;100.00
21980;BME280;11154;48.558;9.234;2022-07-29T04:50:24;97300.56;;;19.27;100.00
21980;BME280;11154;48.558;9.234;2022-07-29T04:52:26;97308.69;;;19.21;100.00
21980;BME280;11154;48.558;9.234;2022-07-29T04:54:28;97308.50;;;19.22;100.00
21980;BME280;11154;48.558;9.234;2022-07-29T04:56:29;97302.88;;;19.24;100.00
21980;BME280;11154;48.558;9.234;2022-07-29T04:58:33;97305.75;;;19.29;100.00
21980;BME280;11154;48.558;9.234;2022-07-29T05:00:35;97302.63;;;19.32;100.00
21980;BME280;11154;48.558;9.234;2022-07-29T05:02:37;97313.31;;;19.38;100.00
21980;BME280;11154;48.558;9.234;2022-07-29T05:04:40;97311.81;;;19.42;100.00
21980;BME280;11154;48.558;9.234;2022-07-29T05:06:42;97317.19;;;19.49;100.00
21980;BME280;11154;48.558;9.234;2022-07-29T05:08:43;97318.84;;;19.50;100.00
21980;BME280;11154;48.558;9.234;2022-07-29T05:10:45;97317.47;;;19.58;100.00
21980;BME280;11154;48.558;9.234;2022-07-29T05:12:47;97312.94;;;19.59;100.00
21980;BME280;11154;48.558;9.234;2022-07-29T05:14:49;97317.88;;;19.62;100.00
21980;BME280;11154;48.558;9.234;2022-07-29T05:16:51;97311.19;;;19.64;100.00
21980;BME280;11154;48.558;9.234;2022-07-29T05:18:53;97321.19;;;19.64;100.00
21980;BME280;11154;48.558;9.234;2022-07-29T05:20:56;97321.72;;;19.72;100.00
21980;BME280;11154;48.558;9.234;2022-07-29T05:22:59;97314.84;;;19.76;100.00
21980;BME280;11154;48.558;9.234;2022-07-29T05:25:00;97317.31;;;19.78;100.00
21980;BME280;11154;48.558;9.234;2022-07-29T05:27:02;97315.56;;;19.83;100.00
21980;BME280;11154;48.558;9.234;2022-07-29T05:29:04;97319.78;;;19.79;100.00
21980;BME280;11154;48.558;9.234;2022-07-29T05:31:06;97318.50;;;19.82;100.00
21980;BME280;11154;48.558;9.234;2022-07-29T05:33:08;97320.53;;;19.86;100.00
21980;BME280;11154;48.558;9.234;2022-07-29T05:35:09;97314.69;;;19.89;100.00
21980;BME280;11154;48.558;9.234;2022-07-29T05:37:13;97314.03;;;19.94;100.00
21980;BME280;11154;48.558;9.234;2022-07-29T05:39:14;97315.44;;;19.96;100.00
21980;BME280;11154;48.558;9.234;2022-07-29T05:41:16;97324.78;;;20.00;100.00
21980;BME280;11154;48.558;9.234;2022-07-29T05:43:18;97318.47;;;20.06;100.00
21980;BME280;11154;48.558;9.234;2022-07-29T05:45:19;97326.72;;;20.11;100.00
21980;BME280;11154;48.558;9.234;2022-07-29T05:47:21;97316.97;;;20.10;100.00
21980;BME280;11154;48.558;9.234;2022-07-29T05:49:23;97319.47;;;20.12;100.00
21980;BME280;11154;48.558;9.234;2022-07-29T05:51:25;97327.47;;;20.18;100.00
21980;BME280;11154;48.558;9.234;2022-07-29T05:53:28;97339.00;;;20.25;100.00
21980;BME280;11154;48.558;9.234;2022-07-29T05:55:29;97339.16;;;20.30;100.00
21980;BME280;11154;48.558;9.234;2022-07-29T05:57:32;97339.75;;;20.32;100.00
21980;BME280;11154;48.558;9.234;2022-07-29T05:59:35;97347.19;;;20.36;100.00
21980;BME280;11154;48.558;9.234;2022-07-29T06:01:37;97347.56;;;20.40;100.00
21980;BME280;11154;48.558;9.234;2022-07-29T06:03:40;97338.38;;;20.41;100.00
21980;BME280;11154;48.558;9.234;2022-07-29T06:05:42;97335.09;;;20.39;100.00
21980;BME280;11154;48.558;9.234;2022-07-29T06:07:44;97342.06;;;20.46;100.00
21980;BME280;11154;48.558;9.234;2022-07-29T06:09:47;97338.56;;;20.46;100.00
21980;BME280;11154;48.558;9.234;2022-07-29T06:11:49;97344.34;;;20.49;100.00
21980;BME280;11154;48.558;9.234;2022-07-29T06:13:50;97342.69;;;20.48;100.00
21980;BME280;11154;48.558;9.234;2022-07-29T06:15:52;97347.59;;;20.51;100.00
21980;BME280;11154;48.558;9.234;2022-07-29T06:17:54;97357.13;;;20.54;100.00
21980;BME280;11154;48.558;9.234;2022-07-29T06:19:55;97349.78;;;20.61;100.00
21980;BME280;11154;48.558;9.234;2022-07-29T06:21:57;97343.44;;;20.67;100.00
21980;BME280;11154;48.558;9.234;2022-07-29T06:23:59;97349.22;;;20.70;100.00
21980;BME280;11154;48.558;9.234;2022-07-29T06:26:02;97351.50;;;20.73;100.00
21980;BME280;11154;48.558;9.234;2022-07-29T06:28:04;97354.47;;;20.83;100.00
21980;BME280;11154;48.558;9.234;2022-07-29T06:30:06;97343.91;;;20.82;100.00
21980;BME280;11154;48.558;9.234;2022-07-29T06:32:08;97345.47;;;20.89;100.00
21980;BME280;11154;48.558;9.234;2022-07-29T06:34:10;97350.41;;;20.92;100.00
21980;BME280;11154;48.558;9.234;2022-07-29T06:36:12;97347.94;;;20.91;100.00
21980;BME280;11154;48.558;9.234;2022-07-29T06:38:14;97348.22;;;21.01;100.00
21980;BME280;11154;48.558;9.234;2022-07-29T06:40:15;97352.81;;;21.00;100.00
21980;BME280;11154;48.558;9.234;2022-07-29T06:42:36;97349.31;;;21.11;100.00
21980;BME280;11154;48.558;9.234;2022-07-29T06:44:38;97354.47;;;21.12;100.00
21980;BME280;11154;48.558;9.234;2022-07-29T06:46:39;97352.50;;;21.19;100.00
21980;BME280;11154;48.558;9.234;2022-07-29T06:48:43;97347.94;;;21.31;100.00
21980;BME280;11154;48.558;9.234;2022-07-29T06:50:45;97347.34;;;21.41;100.00
21980;BME280;11154;48.558;9.234;2022-07-29T06:52:46;97354.78;;;21.45;100.00
21980;BME280;11154;48.558;9.234;2022-07-29T06:54:48;97362.59;;;21.53;100.00
21980;BME280;11154;48.558;9.234;2022-07-29T06:56:49;97354.84;;;21.57;100.00
21980;BME280;11154;48.558;9.234;2022-07-29T06:58:52;97357.41;;;21.63;100.00
21980;BME280;11154;48.558;9.234;2022-07-29T07:00:55;97356.59;;;21.74;100.00
21980;BME280;11154;48.558;9.234;2022-07-29T07:02:57;97360.88;;;21.93;100.00
21980;BME280;11154;48.558;9.234;2022-07-29T07:04:58;97360.59;;;22.06;100.00
21980;BME280;11154;48.558;9.234;2022-07-29T07:07:00;97358.72;;;22.18;100.00
21980;BME280;11154;48.558;9.234;2022-07-29T07:09:02;97355.88;;;22.24;100.00
21980;BME280;11154;48.558;9.234;2022-07-29T07:11:04;97349.63;;;22.35;100.00
21980;BME280;11154;48.558;9.234;2022-07-29T07:13:07;97356.69;;;22.36;100.00
21980;BME280;11154;48.558;9.234;2022-07-29T07:15:11;97351.63;;;22.40;100.00
21980;BME280;11154;48.558;9.234;2022-07-29T07:17:12;97363.16;;;22.47;100.00
21980;BME280;11154;48.558;9.234;2022-07-29T07:19:14;97353.72;;;22.49;100.00
21980;BME280;11154;48.558;9.234;2022-07-29T07:21:16;97366.66;;;22.58;100.00
21980;BME280;11154;48.558;9.234;2022-07-29T07:23:17;97369.25;;;22.65;100.00
21980;BME280;11154;48.558;9.234;2022-07-29T07:25:19;97356.25;;;22.67;100.00
21980;BME280;11154;48.558;9.234;2022-07-29T07:27:21;97363.22;;;22.63;100.00
21980;BME280;11154;48.558;9.234;2022-07-29T07:29:23;97360.78;;;22.50;100.00
21980;BME280;11154;48.558;9.234;2022-07-29T07:31:26;97370.22;;;22.48;100.00
21980;BME280;11154;48.558;9.234;2022-07-29T07:33:27;97370.56;;;22.62;100.00
21980;BME280;11154;48.558;9.234;2022-07-29T07:35:29;97370.28;;;22.75;100.00
21980;BME280;11154;48.558;9.234;2022-07-29T07:37:31;97360.00;;;22.77;100.00
21980;BME280;11154;48.558;9.234;2022-07-29T07:39:33;97369.53;;;22.80;100.00
21980;BME280;11154;48.558;9.234;2022-07-29T07:41:35;97370.78;;;23.00;100.00
21980;BME280;11154;48.558;9.234;2022-07-29T07:43:37;97372.91;;;22.98;99.36
21980;BME280;11154;48.558;9.234;2022-07-29T07:45:39;97378.53;;;23.08;99.56
21980;BME280;11154;48.558;9.234;2022-07-29T07:47:43;97368.56;;;23.25;100.00
21980;BME280;11154;48.558;9.234;2022-07-29T07:49:45;97370.84;;;23.33;100.00
21980;BME280;11154;48.558;9.234;2022-07-29T07:51:46;97367.06;;;23.34;100.00
21980;BME280;11154;48.558;9.234;2022-07-29T07:53:48;97372.03;;;23.37;100.00
21980;BME280;11154;48.558;9.234;2022-07-29T07:55:50;97368.91;;;23.45;100.00
21980;BME280;11154;48.558;9.234;2022-07-29T07:57:52;97370.53;;;23.46;100.00
21980;BME280;11154;48.558;9.234;2022-07-29T08:00:00;97367.94;;;23.51;100.00
21980;BME280;11154;48.558;9.234;2022-07-29T08:02:08;97371.13;;;23.48;100.00
21980;BME280;11154;48.558;9.234;2022-07-29T08:04:12;97370.53;;;23.62;100.00
21980;BME280;11154;48.558;9.234;2022-07-29T08:06:14;97369.75;;;23.62;99.88
21980;BME280;11154;48.558;9.234;2022-07-29T08:08:16;97377.47;;;23.70;99.50
21980;BME280;11154;48.558;9.234;2022-07-29T08:10:18;97378.97;;;23.77;99.76
21980;BME280;11154;48.558;9.234;2022-07-29T08:12:34;97380.56;;;23.90;98.61
21980;BME280;11154;48.558;9.234;2022-07-29T08:14:36;97375.34;;;23.88;98.46
21980;BME280;11154;48.558;9.234;2022-07-29T08:16:37;97366.00;;;23.79;100.00
21980;BME280;11154;48.558;9.234;2022-07-29T08:18:41;97380.44;;;23.85;97.54
21980;BME280;11154;48.558;9.234;2022-07-29T08:20:44;97384.41;;;23.94;97.44
21980;BME280;11154;48.558;9.234;2022-07-29T08:22:46;97377.50;;;24.02;98.38
21980;BME280;11154;48.558;9.234;2022-07-29T08:24:48;97380.28;;;24.07;97.17
21980;BME280;11154;48.558;9.234;2022-07-29T08:26:54;97379.09;;;24.20;94.86
21980;BME280;11154;48.558;9.234;2022-07-29T08:28:56;97386.50;;;24.24;93.30
21980;BME280;11154;48.558;9.234;2022-07-29T08:30:57;97383.31;;;24.27;94.95
21980;BME280;11154;48.558;9.234;2022-07-29T08:32:59;97387.16;;;24.31;92.64
21980;BME280;11154;48.558;9.234;2022-07-29T08:35:01;97381.72;;;24.31;91.95
21980;BME280;11154;48.558;9.234;2022-07-29T08:37:05;97388.06;;;24.37;92.28
21980;BME280;11154;48.558;9.234;2022-07-29T08:39:07;97377.28;;;24.42;93.64
21980;BME280;11154;48.558;9.234;2022-07-29T08:41:09;97377.28;;;24.42;92.99
21980;BME280;11154;48.558;9.234;2022-07-29T08:43:11;97376.59;;;24.51;92.15
21980;BME280;11154;48.558;9.234;2022-07-29T08:45:13;97388.59;;;24.55;91.44
21980;BME280;11154;48.558;9.234;2022-07-29T08:47:15;97389.19;;;24.57;92.28
21980;BME280;11154;48.558;9.234;2022-07-29T08:49:17;97394.03;;;24.55;90.24
21980;BME280;11154;48.558;9.234;2022-07-29T08:51:20;97392.06;;;24.51;87.57
21980;BME280;11154;48.558;9.234;2022-07-29T08:53:28;97393.66;;;24.68;91.95
21980;BME280;11154;48.558;9.234;2022-07-29T08:55:30;97393.19;;;24.71;90.08
21980;BME280;11154;48.558;9.234;2022-07-29T08:57:33;97397.06;;;24.80;87.49
21980;BME280;11154;48.558;9.234;2022-07-29T08:59:37;97384.09;;;24.87;86.29
21980;BME280;11154;48.558;9.234;2022-07-29T09:01:43;97398.66;;;24.97;83.41
21980;BME280;11154;48.558;9.234;2022-07-29T09:03:46;97399.88;;;25.06;81.47
21980;BME280;11154;48.558;9.234;2022-07-29T09:05:49;97410.03;;;25.11;78.15
21980;BME280;11154;48.558;9.234;2022-07-29T09:07:55;97403.59;;;25.22;81.56
21980;BME280;11154;48.558;9.234;2022-07-29T09:09:59;97406.88;;;25.24;76.24
21980;BME280;11154;48.558;9.234;2022-07-29T09:12:02;97392.03;;;25.36;77.57
21980;BME280;11154;48.558;9.234;2022-07-29T09:14:06;97398.56;;;25.35;74.01
21980;BME280;11154;48.558;9.234;2022-07-29T09:16:08;97394.50;;;25.38;72.56
21980;BME280;11154;48.558;9.234;2022-07-29T09:18:10;97398.38;;;25.42;74.94
21980;BME280;11154;48.558;9.234;2022-07-29T09:20:13;97396.69;;;25.36;72.07
21980;BME280;11154;48.558;9.234;2022-07-29T09:22:28;97393.47;;;25.44;76.46
21980;BME280;11154;48.558;9.234;2022-07-29T09:24:39;97389.41;;;25.46;77.72
21980;BME280;11154;48.558;9.234;2022-07-29T09:26:43;97388.63;;;25.50;78.41
21980;BME280;11154;48.558;9.234;2022-07-29T09:28:45;97389.22;;;25.52;76.21
21980;BME280;11154;48.558;9.234;2022-07-29T09:30:51;97384.75;;;25.42;69.44
21980;BME280;11154;48.558;9.234;2022-07-29T09:32:58;97383.72;;;25.48;71.68
21980;BME280;11154;48.558;9.234;2022-07-29T09:35:14;97387.84;;;25.50;70.89
21980;BME280;11154;48.558;9.234;2022-07-29T09:37:25;97384.06;;;25.56;71.13
21980;BME280;11154;48.558;9.234;2022-07-29T09:39:29;97392.50;;;25.54;70.54
21980;BME280;11154;48.558;9.234;2022-07-29T09:41:45;97387.09;;;25.59;71.90
21980;BME280;11154;48.558;9.234;2022-07-29T09:43:54;97385.50;;;25.63;74.75
21980;BME280;11154;48.558;9.234;2022-07-29T09:45:56;97387.09;;;25.59;69.24
21980;BME280;11154;48.558;9.234;2022-07-29T09:48:15;97383.59;;;25.64;71.35
21980;BME280;11154;48.558;9.234;2022-07-29T09:50:22;97383.06;;;25.67;73.63
21980;BME280;11154;48.558;9.234;2022-07-29T09:52:27;97375.97;;;25.66;70.91
21980;BME280;11154;48.558;9.234;2022-07-29T09:54:33;97380.56;;;25.60;67.05
21980;BME280;11154;48.558;9.234;2022-07-29T09:56:39;97384.69;;;25.63;65.85
21980;BME280;11154;48.558;9.234;2022-07-29T09:58:44;97388.03;;;25.70;69.97
21980;BME280;11154;48.558;9.234;2022-07-29T10:00:53;97385.66;;;25.78;72.33
21980;BME280;11154;48.558;9.234;2022-07-29T10:03:00;97382.38;;;25.76;71.66
21980;BME280;11154;48.558;9.234;2022-07-29T10:05:17;97372.06;;;25.83;71.19
21980;BME280;11154;48.558;9.234;2022-07-29T10:07:20;97379.97;;;25.85;67.54
21980;BME280;11154;48.558;9.234;2022-07-29T10:09:33;97377.03;;;25.86;70.89
21980;BME280;11154;48.558;9.234;2022-07-29T10:11:35;97374.59;;;25.90;71.53
21980;BME280;11154;48.558;9.234;2022-07-29T10:13:40;97377.38;;;26.00;71.70
21980;BME280;11154;48.558;9.234;2022-07-29T10:15:45;97369.81;;;26.07;72.34
21980;BME280;11154;48.558;9.234;2022-07-29T10:17:57;97380.44;;;26.08;71.45
21980;BME280;11154;48.558;9.234;2022-07-29T10:20:04;97368.88;;;25.91;63.13
21980;BME280;11154;48.558;9.234;2022-07-29T10:22:10;97361.75;;;25.85;64.82
21980;BME280;11154;48.558;9.234;2022-07-29T10:24:20;97361.09;;;25.73;63.81
21980;BME280;11154;48.558;9.234;2022-07-29T10:26:26;97355.69;;;25.78;64.71
21980;BME280;11154;48.558;9.234;2022-07-29T10:28:30;97357.53;;;26.04;67.66
21980;BME280;11154;48.558;9.234;2022-07-29T10:30:37;97357.06;;;26.17;66.85
21980;BME280;11154;48.558;9.234;2022-07-29T10:35:36;97348.13;;;26.26;64.13
21980;BME280;11154;48.558;9.234;2022-07-29T10:38:10;97361.19;;;26.24;61.60
21980;BME280;11154;48.558;9.234;2022-07-29T10:40:22;97370.22;;;26.25;60.93
21980;BME280;11154;48.558;9.234;2022-07-29T10:42:44;97357.88;;;26.18;64.84
21980;BME280;11154;48.558;9.234;2022-07-29T10:44:47;97356.00;;;26.23;66.75
21980;BME280;11154;48.558;9.234;2022-07-29T10:46:52;97354.34;;;26.17;63.89
21980;BME280;11154;48.558;9.234;2022-07-29T10:49:05;97345.63;;;26.20;66.45
21980;BME280;11154;48.558;9.234;2022-07-29T10:51:11;97343.47;;;26.22;69.88
21980;BME280;11154;48.558;9.234;2022-07-29T10:53:13;97338.00;;;26.22;71.46